createdAt,value
2018-07-20T00:01:48.706Z,19.00
2018-07-20T00:04:17.408Z,19.00
2018-07-20T00:09:14.385Z,19.10
2018-07-20T00:11:44.044Z,19.00
2018-07-20T00:14:12.635Z,19.00
2018-07-20T00:16:41.455Z,18.90
2018-07-20T00:19:10.094Z,18.80
2018-07-20T00:21:38.720Z,18.80
2018-07-20T00:24:07.402Z,18.70
2018-07-20T00:26:36.001Z,18.70
2018-07-20T00:29:05.675Z,18.70
2018-07-20T00:31:34.357Z,18.60
2018-07-20T00:34:02.985Z,18.60
2018-07-20T00:36:32.581Z,18.70
2018-07-20T00:39:01.223Z,18.70
2018-07-20T00:43:58.073Z,18.70
2018-07-20T00:46:26.840Z,18.70
2018-07-20T00:48:55.543Z,18.70
2018-07-20T00:51:24.175Z,18.70
2018-07-20T00:53:53.985Z,18.70
2018-07-20T00:56:22.662Z,18.60
2018-07-20T00:58:51.867Z,18.50
2018-07-20T01:01:22.633Z,18.50
2018-07-20T01:03:51.226Z,18.50
2018-07-20T01:06:20.047Z,18.40
2018-07-20T01:08:48.799Z,18.50
2018-07-20T01:11:17.445Z,18.50
2018-07-20T01:13:46.157Z,18.50
2018-07-20T01:16:14.801Z,18.40
2018-07-20T01:18:43.536Z,18.30
2018-07-20T01:21:12.124Z,18.40
2018-07-20T01:23:40.798Z,18.40
2018-07-20T01:26:10.472Z,18.30
2018-07-20T01:28:39.124Z,18.20
2018-07-20T01:31:07.866Z,18.20
2018-07-20T01:33:36.777Z,18.20
2018-07-20T01:36:06.379Z,18.20
2018-07-20T01:38:35.003Z,18.20
2018-07-20T01:41:03.622Z,18.20
2018-07-20T01:43:33.368Z,18.30
2018-07-20T01:46:03.010Z,18.30
2018-07-20T01:48:31.732Z,18.30
2018-07-20T01:51:01.395Z,18.30
2018-07-20T01:53:30.025Z,18.30
2018-07-20T01:55:59.195Z,18.40
2018-07-20T01:58:27.919Z,18.30
2018-07-20T02:00:56.620Z,18.20
2018-07-20T02:03:29.314Z,18.10
2018-07-20T02:06:00.063Z,18.10
2018-07-20T02:08:28.758Z,18.00
2018-07-20T02:10:59.578Z,18.00
2018-07-20T02:13:28.207Z,18.00
2018-07-20T02:15:58.559Z,17.90
2018-07-20T02:18:31.215Z,17.90
2018-07-20T02:21:02.948Z,17.80
2018-07-20T02:23:31.628Z,17.80
2018-07-20T02:26:00.284Z,17.70
2018-07-20T02:28:28.878Z,17.60
2018-07-20T02:30:57.501Z,17.60
2018-07-20T02:33:26.153Z,17.60
2018-07-20T02:38:26.892Z,17.60
2018-07-20T02:40:55.595Z,17.60
2018-07-20T02:43:25.247Z,17.50
2018-07-20T02:45:53.959Z,17.50
2018-07-20T02:48:23.548Z,17.50
2018-07-20T02:50:52.177Z,17.50
2018-07-20T02:53:20.923Z,17.40
2018-07-20T02:55:49.657Z,17.40
2018-07-20T02:58:19.359Z,17.40
2018-07-20T03:00:48.107Z,17.30
2018-07-20T03:03:16.806Z,17.30
2018-07-20T03:05:46.082Z,17.30
2018-07-20T03:08:14.814Z,17.40
2018-07-20T03:10:44.566Z,17.30
2018-07-20T03:13:13.281Z,17.40
2018-07-20T03:15:42.060Z,17.30
2018-07-20T03:18:11.349Z,17.30
2018-07-20T03:20:40.562Z,17.20
2018-07-20T03:23:09.362Z,17.20
2018-07-20T03:28:06.264Z,17.20
2018-07-20T03:30:34.894Z,17.20
2018-07-20T03:33:04.388Z,17.20
2018-07-20T03:35:33.971Z,17.20
2018-07-20T03:38:04.871Z,17.20
2018-07-20T03:40:33.532Z,17.20
2018-07-20T03:43:02.498Z,17.30
2018-07-20T03:45:31.166Z,17.30
2018-07-20T03:47:59.770Z,17.30
2018-07-20T03:50:29.430Z,17.30
2018-07-20T03:52:58.095Z,17.30
2018-07-20T03:55:26.909Z,17.30
2018-07-20T03:58:00.745Z,17.30
2018-07-20T04:00:30.375Z,17.30
2018-07-20T04:02:59.083Z,17.30
2018-07-20T04:05:27.754Z,17.40
2018-07-20T04:07:56.414Z,17.40
2018-07-20T04:10:25.023Z,17.40
2018-07-20T04:12:53.823Z,17.50
2018-07-20T04:15:23.509Z,17.60
2018-07-20T04:17:53.264Z,17.70
2018-07-20T04:20:22.909Z,17.80
2018-07-20T04:22:52.233Z,17.80
2018-07-20T04:25:20.939Z,18.00
2018-07-20T04:27:49.710Z,18.30
2018-07-20T04:30:20.394Z,18.70
2018-07-20T04:32:49.032Z,19.20
2018-07-20T04:35:17.679Z,19.70
2018-07-20T04:37:46.271Z,20.00
2018-07-20T04:40:14.983Z,20.00
2018-07-20T04:42:43.800Z,20.50
2018-07-20T04:45:12.526Z,20.70
2018-07-20T04:47:41.328Z,20.70
2018-07-20T04:50:13.928Z,20.50
2018-07-20T04:52:49.124Z,20.20
2018-07-20T04:55:18.534Z,20.20
2018-07-20T04:57:48.162Z,20.50
2018-07-20T05:00:16.791Z,21.00
2018-07-20T05:02:45.515Z,21.30
2018-07-20T05:05:15.147Z,21.40
2018-07-20T05:07:43.862Z,21.50
2018-07-20T05:10:12.796Z,21.20
2018-07-20T05:12:42.454Z,20.50
2018-07-20T05:15:11.257Z,20.30
2018-07-20T05:17:39.920Z,20.40
2018-07-20T05:20:09.217Z,20.30
2018-07-20T05:22:37.880Z,20.20
2018-07-20T05:25:07.739Z,20.10
2018-07-20T05:27:36.460Z,20.00
2018-07-20T05:30:05.975Z,20.40
2018-07-20T05:32:35.914Z,21.10
2018-07-20T05:35:04.546Z,21.70
2018-07-20T05:37:33.907Z,22.30
2018-07-20T05:40:02.605Z,22.20
2018-07-20T05:42:31.246Z,22.10
2018-07-20T05:45:00.613Z,21.80
2018-07-20T05:47:29.307Z,21.50
2018-07-20T05:49:57.952Z,21.20
2018-07-20T05:52:26.678Z,21.50
2018-07-20T05:54:57.776Z,21.50
2018-07-20T05:57:26.454Z,21.10
2018-07-20T05:59:56.132Z,20.90
2018-07-20T06:02:24.935Z,21.00
2018-07-20T06:04:55.655Z,20.90
2018-07-20T06:07:25.281Z,21.00
2018-07-20T06:09:54.020Z,20.90
2018-07-20T06:12:22.900Z,20.80
2018-07-20T06:14:51.568Z,20.80
2018-07-20T06:17:20.288Z,20.90
2018-07-20T06:19:49.035Z,21.00
2018-07-20T06:22:18.798Z,21.00
2018-07-20T06:24:48.062Z,20.90
2018-07-20T06:27:18.329Z,20.80
2018-07-20T06:29:47.082Z,20.90
2018-07-20T06:32:15.814Z,20.90
2018-07-20T06:34:44.528Z,20.90
2018-07-20T06:37:13.244Z,21.00
2018-07-20T06:39:42.030Z,21.30
2018-07-20T06:42:10.681Z,21.90
2018-07-20T06:44:39.304Z,22.70
2018-07-20T06:47:08.090Z,22.90
2018-07-20T06:49:37.751Z,23.60
2018-07-20T06:52:07.579Z,24.30
2018-07-20T06:54:36.307Z,24.40
2018-07-20T06:57:06.196Z,24.80
2018-07-20T06:59:34.976Z,25.00
2018-07-20T07:02:11.280Z,24.90
2018-07-20T07:04:44.172Z,25.10
2018-07-20T07:07:18.518Z,25.60
2018-07-20T07:09:48.269Z,25.80
2018-07-20T07:12:17.917Z,26.00
2018-07-20T07:14:46.692Z,26.50
2018-07-20T07:17:18.829Z,25.90
2018-07-20T07:19:49.518Z,25.50
2018-07-20T07:22:18.347Z,25.00
2018-07-20T07:24:47.060Z,25.10
2018-07-20T07:27:15.957Z,25.10
2018-07-20T07:29:44.727Z,25.00
2018-07-20T07:32:13.579Z,25.10
2018-07-20T07:34:42.365Z,25.00
2018-07-20T07:37:11.114Z,25.30
2018-07-20T07:39:39.824Z,24.70
2018-07-20T07:42:15.297Z,24.50
2018-07-20T07:44:44.402Z,24.70
2018-07-20T07:47:13.123Z,24.70
2018-07-20T07:49:43.979Z,24.90
2018-07-20T07:52:12.853Z,25.20
2018-07-20T07:54:42.623Z,25.40
2018-07-20T07:57:11.620Z,25.90
2018-07-20T07:59:42.856Z,25.70
2018-07-20T08:02:13.642Z,25.20
2018-07-20T08:04:42.353Z,25.40
2018-07-20T08:07:16.299Z,25.60
2018-07-20T08:09:45.159Z,25.90
2018-07-20T08:12:14.790Z,24.90
2018-07-20T08:14:47.609Z,24.20
2018-07-20T08:17:16.279Z,23.90
2018-07-20T08:19:50.356Z,23.80
2018-07-20T08:22:19.104Z,23.90
2018-07-20T08:24:47.902Z,24.20
2018-07-20T08:27:18.767Z,24.10
2018-07-20T08:29:48.445Z,24.30
2018-07-20T08:32:17.179Z,24.10
2018-07-20T08:34:47.820Z,24.00
2018-07-20T08:37:16.489Z,24.30
2018-07-20T08:39:45.230Z,24.50
2018-07-20T08:42:14.920Z,24.60
2018-07-20T08:44:44.601Z,24.90
2018-07-20T08:47:13.287Z,25.40
2018-07-20T08:49:44.181Z,25.70
2018-07-20T08:52:16.995Z,25.50
2018-07-20T08:54:45.797Z,25.40
2018-07-20T08:57:14.528Z,25.20
2018-07-20T08:59:43.377Z,25.30
2018-07-20T09:02:13.058Z,25.20
2018-07-20T09:04:42.830Z,25.40
2018-07-20T09:07:11.573Z,25.20
2018-07-20T09:09:40.347Z,25.40
2018-07-20T09:12:09.156Z,25.70
2018-07-20T09:14:38.013Z,25.80
2018-07-20T09:17:07.782Z,25.60
2018-07-20T09:19:36.482Z,25.60
2018-07-20T09:24:35.007Z,25.30
2018-07-20T09:27:07.013Z,25.10
2018-07-20T09:32:09.193Z,24.90
2018-07-20T09:34:40.326Z,24.50
2018-07-20T09:37:08.996Z,25.30
2018-07-20T09:39:37.672Z,25.00
2018-07-20T09:42:08.705Z,25.30
2018-07-20T09:44:38.443Z,25.40
2018-07-20T09:47:07.191Z,25.70
2018-07-20T09:49:36.057Z,25.50
2018-07-20T09:52:05.131Z,25.80
2018-07-20T09:54:35.371Z,25.50
2018-07-20T09:57:07.318Z,25.20
2018-07-20T09:59:40.826Z,25.30
2018-07-20T10:02:09.576Z,25.80
2018-07-20T10:04:40.173Z,25.40
2018-07-20T10:07:09.458Z,25.40
2018-07-20T10:09:39.556Z,25.60
2018-07-20T10:12:08.789Z,25.80
2018-07-20T10:14:39.604Z,25.40
2018-07-20T10:17:12.248Z,25.30
2018-07-20T10:19:40.950Z,25.50
2018-07-20T10:22:13.631Z,25.50
2018-07-20T10:24:44.578Z,25.60
2018-07-20T10:27:15.406Z,26.00
2018-07-20T10:29:44.203Z,26.00
2018-07-20T10:32:12.946Z,26.20
2018-07-20T10:34:42.413Z,26.00
2018-07-20T10:37:13.158Z,26.10
2018-07-20T10:39:42.080Z,26.10
2018-07-20T10:42:11.063Z,25.80
2018-07-20T10:44:41.238Z,25.80
2018-07-20T10:47:10.161Z,26.30
2018-07-20T10:49:39.897Z,26.30
2018-07-20T10:52:11.019Z,26.50
2018-07-20T10:54:48.259Z,26.70
2018-07-20T10:57:18.011Z,26.90
2018-07-20T10:59:47.191Z,26.90
2018-07-20T11:02:17.052Z,27.30
2018-07-20T11:04:46.812Z,27.10
2018-07-20T11:07:21.086Z,27.40
2018-07-20T11:09:50.608Z,27.50
2018-07-20T11:12:20.031Z,27.40
2018-07-20T11:14:49.843Z,27.40
2018-07-20T11:17:20.323Z,27.50
2018-07-20T11:19:50.980Z,28.00
2018-07-20T11:22:23.628Z,27.70
2018-07-20T11:24:52.498Z,27.40
2018-07-20T11:27:27.346Z,27.50
2018-07-20T11:29:56.494Z,27.20
2018-07-20T11:32:25.860Z,27.20
2018-07-20T11:34:54.929Z,27.20
2018-07-20T11:37:24.722Z,27.40
2018-07-20T11:39:55.301Z,27.70
2018-07-20T11:42:24.848Z,27.40
2018-07-20T11:44:53.535Z,27.40
2018-07-20T11:47:22.303Z,27.40
2018-07-20T11:49:53.180Z,27.60
2018-07-20T11:52:22.945Z,27.60
2018-07-20T11:54:55.978Z,27.50
2018-07-20T11:57:25.917Z,27.50
2018-07-20T11:59:54.711Z,27.30
2018-07-20T12:02:24.671Z,27.30
2018-07-20T12:04:54.486Z,27.50
2018-07-20T12:07:28.516Z,27.50
2018-07-20T12:09:58.284Z,28.10
2018-07-20T12:12:28.045Z,27.70
2018-07-20T12:14:57.918Z,27.90
2018-07-20T12:17:26.759Z,28.10
2018-07-20T12:19:55.569Z,28.20
2018-07-20T12:22:26.425Z,28.20
2018-07-20T12:25:00.592Z,28.10
2018-07-20T12:27:29.567Z,28.00
2018-07-20T12:32:28.944Z,27.40
2018-07-20T12:34:58.812Z,27.00
2018-07-20T12:37:28.278Z,27.20
2018-07-20T12:39:58.143Z,27.00
2018-07-20T12:42:31.989Z,27.00
2018-07-20T12:45:00.775Z,27.20
2018-07-20T12:47:29.492Z,27.50
2018-07-20T12:50:03.334Z,27.60
2018-07-20T12:52:34.436Z,27.70
2018-07-20T12:55:07.270Z,27.60
2018-07-20T12:57:41.053Z,27.70
2018-07-20T13:00:11.500Z,27.50
2018-07-20T13:02:44.491Z,27.60
2018-07-20T13:05:13.344Z,28.10
2018-07-20T13:07:44.162Z,28.10
2018-07-20T13:10:15.179Z,28.00
2018-07-20T13:12:44.872Z,28.10
2018-07-20T13:15:21.077Z,28.00
2018-07-20T13:17:49.883Z,28.20
2018-07-20T13:20:19.139Z,28.30
2018-07-20T13:22:48.094Z,28.20
2018-07-20T13:25:18.886Z,28.60
2018-07-20T13:27:53.108Z,28.90
2018-07-20T13:30:24.632Z,28.80
2018-07-20T13:32:55.000Z,28.80
2018-07-20T13:35:26.093Z,28.40
2018-07-20T13:38:00.101Z,28.10
2018-07-20T13:40:29.120Z,28.30
2018-07-20T13:42:57.941Z,28.20
2018-07-20T13:45:32.648Z,28.00
2018-07-20T13:48:02.606Z,27.90
2018-07-20T13:50:31.520Z,27.90
2018-07-20T13:53:00.434Z,28.00
2018-07-20T13:55:29.340Z,28.10
2018-07-20T13:58:02.315Z,28.10
2018-07-20T14:00:33.711Z,28.60
2018-07-20T14:03:04.007Z,28.80
2018-07-20T14:05:39.154Z,28.60
2018-07-20T14:08:08.057Z,28.30
2018-07-20T14:10:36.926Z,28.50
2018-07-20T14:13:05.912Z,28.60
2018-07-20T14:15:34.809Z,28.60
2018-07-20T14:18:03.799Z,28.80
2018-07-20T14:20:32.489Z,28.60
2018-07-20T14:23:01.284Z,28.60
2018-07-20T14:25:31.115Z,28.70
2018-07-20T14:28:10.686Z,28.80
2018-07-20T14:30:40.482Z,29.00
2018-07-20T14:33:10.728Z,29.00
2018-07-20T14:35:39.621Z,29.20
2018-07-20T14:38:08.483Z,29.10
2018-07-20T14:43:05.593Z,29.50
2018-07-20T14:45:34.353Z,29.60
2018-07-20T14:48:04.220Z,29.30
2018-07-20T14:50:33.915Z,29.40
2018-07-20T14:53:02.816Z,29.40
2018-07-20T14:55:32.703Z,29.30
2018-07-20T14:58:09.034Z,28.80
2018-07-20T15:00:37.775Z,29.00
2018-07-20T15:03:09.926Z,29.10
2018-07-20T15:05:40.054Z,29.20
2018-07-20T15:08:08.871Z,29.30
2018-07-20T15:10:39.742Z,28.70
2018-07-20T15:13:08.490Z,28.70
2018-07-20T15:15:51.332Z,28.90
2018-07-20T15:18:20.102Z,29.10
2018-07-20T15:20:48.898Z,29.10
2018-07-20T15:23:17.799Z,29.00
2018-07-20T15:26:16.617Z,28.70
2018-07-20T15:28:46.031Z,28.50
2018-07-20T15:31:14.680Z,28.30
2018-07-20T15:33:43.703Z,28.20
2018-07-20T15:36:12.582Z,28.20
2018-07-20T15:38:41.312Z,28.10
2018-07-20T15:41:10.305Z,28.00
2018-07-20T15:43:40.228Z,27.90
2018-07-20T15:46:09.215Z,27.80
2018-07-20T15:48:37.957Z,27.60
2018-07-20T15:51:07.018Z,27.60
2018-07-20T15:53:36.276Z,27.50
2018-07-20T15:56:04.597Z,27.40
2018-07-20T15:58:33.560Z,27.30
2018-07-20T16:01:02.326Z,27.20
2018-07-20T16:03:31.118Z,26.80
2018-07-20T16:06:02.073Z,26.20
2018-07-20T16:08:30.918Z,26.00
2018-07-20T16:10:59.789Z,26.00
2018-07-20T16:13:29.092Z,26.00
2018-07-20T16:16:03.036Z,26.10
2018-07-20T16:18:32.004Z,26.10
2018-07-20T16:21:01.781Z,26.10
2018-07-20T16:23:32.744Z,26.10
2018-07-20T16:26:01.752Z,26.00
2018-07-20T16:28:30.517Z,26.00
2018-07-20T16:30:59.443Z,25.90
2018-07-20T16:33:29.251Z,25.90
2018-07-20T16:37:44.102Z,25.80
2018-07-20T16:40:12.817Z,25.70
2018-07-20T16:42:41.559Z,25.60
2018-07-20T16:45:10.263Z,25.40
2018-07-20T16:47:38.979Z,25.20
2018-07-20T16:50:07.649Z,25.10
2018-07-20T16:52:36.322Z,25.00
2018-07-20T16:55:05.008Z,24.90
2018-07-20T16:57:33.644Z,24.80
2018-07-20T17:00:02.329Z,24.90
2018-07-20T17:02:31.827Z,24.90
2018-07-20T17:05:00.465Z,24.80
2018-07-20T17:07:29.081Z,24.80
2018-07-20T17:09:57.864Z,24.80
2018-07-20T17:12:26.712Z,24.60
2018-07-20T17:14:56.410Z,24.60
2018-07-20T17:17:25.156Z,24.50
2018-07-20T17:19:53.892Z,24.50
2018-07-20T17:22:22.529Z,24.30
2018-07-20T17:24:51.281Z,24.30
2018-07-20T17:27:19.940Z,24.20
2018-07-20T17:29:48.690Z,24.10
2018-07-20T17:32:17.517Z,24.10
2018-07-20T17:34:46.233Z,24.00
2018-07-20T17:37:14.850Z,24.00
2018-07-20T17:39:43.521Z,23.90
2018-07-20T17:42:12.222Z,24.00
2018-07-20T17:44:41.900Z,23.90
2018-07-20T17:47:10.650Z,23.90
2018-07-20T17:49:39.384Z,23.90
2018-07-20T17:52:08.168Z,23.80
2018-07-20T17:54:37.020Z,23.80
2018-07-20T17:57:25.388Z,23.70
2018-07-20T17:59:54.081Z,23.70
2018-07-20T18:02:22.862Z,23.70
2018-07-20T18:04:51.573Z,23.70
2018-07-20T18:07:20.257Z,23.70
2018-07-20T18:09:48.995Z,23.60
2018-07-20T18:12:17.644Z,23.60
2018-07-20T18:14:46.342Z,23.50
2018-07-20T18:17:15.036Z,23.50
2018-07-20T18:19:43.752Z,23.50
2018-07-20T18:22:12.531Z,23.50
2018-07-20T18:24:41.373Z,23.50
2018-07-20T18:27:10.180Z,23.50
2018-07-20T18:29:38.703Z,23.40
2018-07-20T18:32:07.323Z,23.40
2018-07-20T18:34:36.040Z,23.40
2018-07-20T18:37:04.908Z,23.40
2018-07-20T18:39:33.646Z,23.20
2018-07-20T18:42:02.393Z,23.10
2018-07-20T18:44:31.103Z,22.90
2018-07-20T18:46:59.787Z,22.80
2018-07-20T18:49:28.507Z,22.70
2018-07-20T18:51:57.236Z,22.60
2018-07-20T18:54:25.983Z,22.50
2018-07-20T18:56:54.718Z,22.40
2018-07-20T18:59:23.382Z,22.50
2018-07-20T19:01:52.012Z,22.40
2018-07-20T19:04:20.634Z,22.30
2018-07-20T19:06:49.308Z,22.30
2018-07-20T19:09:18.023Z,22.20
2018-07-20T19:11:47.655Z,22.20
2018-07-20T19:14:16.421Z,22.20
2018-07-20T19:16:45.102Z,22.20
2018-07-20T19:19:13.856Z,22.20
2018-07-20T19:21:42.518Z,22.10
2018-07-20T19:24:11.152Z,22.10
2018-07-20T19:26:40.816Z,22.00
2018-07-20T19:29:09.525Z,22.00
2018-07-20T19:31:38.157Z,22.00
2018-07-20T19:36:35.208Z,22.00
2018-07-20T19:39:05.938Z,21.90
2018-07-20T19:41:34.618Z,21.80
2018-07-20T19:44:03.472Z,21.60
2018-07-20T19:46:32.155Z,21.60
2018-07-20T19:49:00.892Z,21.50
2018-07-20T19:51:29.609Z,21.40
2018-07-20T19:53:58.225Z,21.30
2018-07-20T19:56:26.890Z,21.20
2018-07-20T19:58:55.581Z,21.10
2018-07-20T20:01:24.283Z,21.10
2018-07-20T20:03:53.168Z,21.10
2018-07-20T20:06:22.917Z,21.10
2018-07-20T20:08:52.543Z,21.10
2018-07-20T20:11:21.241Z,21.10
2018-07-20T20:13:49.836Z,21.10
2018-07-20T20:18:46.883Z,20.90
2018-07-20T20:21:15.725Z,20.90
2018-07-20T20:23:44.444Z,20.90
2018-07-20T20:26:13.247Z,20.90
2018-07-20T20:28:42.073Z,20.80
2018-07-20T20:31:12.683Z,20.70
2018-07-20T20:36:09.559Z,20.60
2018-07-20T20:38:39.253Z,20.50
2018-07-20T20:41:07.892Z,20.50
2018-07-20T20:43:36.547Z,20.60
2018-07-20T20:46:05.203Z,20.50
2018-07-20T20:48:33.899Z,20.50
2018-07-20T20:51:02.605Z,20.50
2018-07-20T20:55:59.525Z,20.20
2018-07-20T20:58:28.229Z,20.00
2018-07-20T21:00:56.878Z,19.90
2018-07-20T21:03:25.634Z,19.80
2018-07-20T21:05:54.242Z,19.80
2018-07-20T21:08:23.132Z,19.80
2018-07-20T21:10:51.812Z,20.00
2018-07-20T21:13:20.451Z,20.20
2018-07-20T21:15:49.029Z,20.20
2018-07-20T21:18:17.695Z,20.10
2018-07-20T21:20:46.397Z,20.10
2018-07-20T21:23:15.006Z,20.20
2018-07-20T21:25:43.764Z,20.30
2018-07-20T21:28:12.374Z,20.30
2018-07-20T21:30:41.322Z,20.40
2018-07-20T21:33:09.973Z,20.40
2018-07-20T21:35:39.681Z,20.40
2018-07-20T21:38:10.029Z,20.40
2018-07-20T21:40:38.677Z,20.50
2018-07-20T21:43:07.402Z,20.50
2018-07-20T21:45:36.010Z,20.50
2018-07-20T21:48:04.652Z,20.50
2018-07-20T21:50:33.232Z,20.50
2018-07-20T21:53:01.817Z,20.40
2018-07-20T21:55:30.579Z,20.30
2018-07-20T21:57:59.966Z,20.30
2018-07-20T22:00:29.602Z,20.20
2018-07-20T22:02:58.287Z,20.20
2018-07-20T22:05:27.138Z,20.10
2018-07-20T22:07:55.801Z,20.10
2018-07-20T22:10:24.549Z,20.10
2018-07-20T22:12:53.311Z,20.00
2018-07-20T22:15:22.023Z,19.90
2018-07-20T22:17:50.723Z,19.90
2018-07-20T22:20:19.409Z,19.90
2018-07-20T22:22:49.167Z,19.90
2018-07-20T22:25:17.820Z,19.80
2018-07-20T22:27:46.602Z,19.80
2018-07-20T22:30:15.323Z,19.90
2018-07-20T22:32:44.065Z,19.80
2018-07-20T22:35:12.695Z,19.90
2018-07-20T22:37:42.483Z,20.00
2018-07-20T22:40:11.203Z,19.90
2018-07-20T22:45:08.466Z,19.90
2018-07-20T22:47:39.190Z,19.90
2018-07-20T22:50:08.922Z,19.70
2018-07-20T22:52:37.608Z,19.60
2018-07-20T22:55:06.372Z,19.60
2018-07-20T22:57:35.262Z,19.50
2018-07-20T23:00:03.936Z,19.60
2018-07-20T23:02:32.602Z,19.70
2018-07-20T23:05:01.246Z,19.80
2018-07-20T23:07:29.942Z,19.80
2018-07-20T23:09:58.626Z,19.80
2018-07-20T23:12:27.363Z,19.80
2018-07-20T23:14:56.031Z,19.70
2018-07-20T23:17:24.676Z,19.70
2018-07-20T23:19:53.379Z,19.70
2018-07-20T23:22:22.044Z,19.70
2018-07-20T23:24:51.797Z,19.70
2018-07-20T23:27:21.510Z,19.70
2018-07-20T23:29:50.302Z,19.60
2018-07-20T23:32:18.990Z,19.60
2018-07-20T23:34:47.613Z,19.70
2018-07-20T23:37:17.189Z,19.60
2018-07-20T23:39:46.545Z,19.70
2018-07-20T23:42:15.206Z,19.60
2018-07-20T23:44:43.895Z,19.60
2018-07-20T23:47:13.577Z,19.50
2018-07-20T23:49:42.209Z,19.60
2018-07-20T23:52:10.870Z,19.60
2018-07-20T23:54:39.694Z,19.60
2018-07-20T23:57:09.152Z,19.50
2018-07-20T23:59:37.809Z,19.30
